Time;durP1;ratioP1;P1;durP2;ratioP2;P2;SDS_P1;SDS_P2;PMS_P1;PMS_P2;Temp;Humidity;BMP_temperature;BMP_pressure;BME280_temperature;BME280_humidity;BME280_pressure;Samples;Min_cycle;Max_cycle;Signal;HPM_P1;HPM_P2
2022/02/15 00:01:57;;;;;;;52.88;25.20;;;;;;;2.16;75.91;100239.81;1695303;83;25913;-80
2022/02/15 00:04:23;;;;;;;51.80;25.12;;;;;;;2.15;75.97;100239.45;1695030;83;26425;-80
2022/02/15 00:06:50;;;;;;;53.40;26.42;;;;;;;2.15;76.01;100241.61;1692413;83;26536;-80
2022/02/15 00:09:16;;;;;;;49.25;26.45;;;;;;;2.13;76.04;100243.56;1694067;83;26506;-79
2022/02/15 00:11:42;;;;;;;43.60;24.20;;;;;;;2.13;76.06;100236.95;1693868;83;28441;-80
2022/02/15 00:14:10;;;;;;;47.55;24.12;;;;;;;2.13;76.12;100238.28;1691877;83;25880;-80
2022/02/15 00:16:36;;;;;;;46.80;24.67;;;;;;;2.11;76.09;100230.98;1695462;83;26628;-79
2022/02/15 00:19:02;;;;;;;49.05;25.50;;;;;;;2.09;76.08;100228.13;1694707;83;26296;-80
2022/02/15 00:21:29;;;;;;;50.63;26.70;;;;;;;2.08;76.13;100223.33;1690722;83;25984;-79
2022/02/15 00:23:55;;;;;;;44.65;24.77;;;;;;;2.06;76.27;100222.64;1688164;83;27633;-79
2022/02/15 00:26:21;;;;;;;52.15;27.95;;;;;;;2.03;76.21;100220.27;1690761;83;26295;-80
2022/02/15 00:28:47;;;;;;;50.83;25.08;;;;;;;2.02;76.32;100228.34;1689401;84;25984;-80
2022/02/15 00:31:13;;;;;;;48.78;25.68;;;;;;;2.01;76.40;100220.89;1693705;83;25873;-80
2022/02/15 00:33:39;;;;;;;47.00;23.73;;;;;;;2.03;76.44;100227.38;1681282;84;25778;-80
2022/02/15 00:36:06;;;;;;;48.45;25.12;;;;;;;2.02;76.44;100224.38;1689812;84;27616;-80
2022/02/15 00:38:34;;;;;;;47.95;26.15;;;;;;;2.02;76.45;100227.02;1688672;83;26734;-80
2022/02/15 00:41:03;;;;;;;50.48;27.15;;;;;;;2.02;76.41;100221.73;1691414;83;25950;-81
2022/02/15 00:43:29;;;;;;;49.63;26.60;;;;;;;2.00;76.44;100223.21;1687203;84;25783;-78
2022/02/15 00:45:55;;;;;;;52.78;25.68;;;;;;;1.97;76.43;100216.87;1687774;84;25947;-79
2022/02/15 00:48:22;;;;;;;53.55;25.05;;;;;;;1.99;76.49;100220.72;1691923;84;27474;-79
2022/02/15 00:50:48;;;;;;;46.33;24.98;;;;;;;1.98;76.48;100223.00;1687636;84;25857;-80
2022/02/15 00:53:14;;;;;;;43.65;24.52;;;;;;;1.95;76.48;100216.66;1687804;83;25869;-79
2022/02/15 00:55:42;;;;;;;45.35;24.70;;;;;;;1.93;76.51;100217.30;1691191;84;25863;-80
2022/02/15 00:58:08;;;;;;;41.02;24.50;;;;;;;1.94;76.50;100228.22;1689651;83;25797;-79
2022/02/15 01:00:34;;;;;;;50.50;27.00;;;;;;;1.93;76.49;100219.45;1689775;84;28247;-79
2022/02/15 01:03:01;;;;;;;44.67;25.00;;;;;;;1.95;76.53;100219.30;1688532;84;25970;-80
2022/02/15 01:05:27;;;;;;;48.78;25.80;;;;;;;1.94;76.38;100213.22;1689613;84;26348;-81
2022/02/15 01:07:53;;;;;;;47.15;25.45;;;;;;;1.94;76.38;100216.34;1689277;84;26380;-80
2022/02/15 01:10:20;;;;;;;46.48;24.15;;;;;;;1.97;76.40;100218.67;1689128;83;25856;-80
2022/02/15 01:12:47;;;;;;;55.12;25.80;;;;;;;1.96;76.35;100207.30;1691090;84;28199;-80
2022/02/15 01:15:16;;;;;;;45.28;25.65;;;;;;;1.98;76.32;100209.80;1685434;84;26009;-80
2022/02/15 01:17:41;;;;;;;51.90;25.68;;;;;;;1.99;76.32;100207.52;1690134;83;25872;-79
2022/02/15 01:20:08;;;;;;;46.18;25.32;;;;;;;1.98;76.23;100209.31;1683776;84;26563;-79
2022/02/15 01:22:35;;;;;;;47.67;25.60;;;;;;;1.97;76.17;100199.70;1687642;83;25787;-79
2022/02/15 01:25:02;;;;;;;51.95;26.55;;;;;;;1.96;76.30;100205.98;1688325;83;27479;-79
2022/02/15 01:27:28;;;;;;;52.60;27.07;;;;;;;1.96;76.26;100199.38;1690175;83;25860;-79
2022/02/15 01:29:56;;;;;;;55.48;27.15;;;;;;;1.95;76.25;100203.46;1692274;83;25952;-79
2022/02/15 01:32:25;;;;;;;49.30;25.95;;;;;;;1.95;76.23;100197.70;1688501;84;26548;-79
2022/02/15 01:34:51;;;;;;;50.78;29.60;;;;;;;1.95;76.24;100199.50;1690797;83;25932;-81
2022/02/15 01:37:17;;;;;;;44.88;26.12;;;;;;;1.93;76.31;100193.05;1690093;83;27650;-79
2022/02/15 01:39:44;;;;;;;45.30;24.70;;;;;;;1.91;76.28;100191.52;1687148;84;25923;-79
2022/02/15 01:42:10;;;;;;;51.53;26.95;;;;;;;1.86;76.26;100186.66;1689627;83;25847;-79
2022/02/15 01:44:37;;;;;;;49.75;26.17;;;;;;;1.83;76.40;100184.31;1687631;84;25943;-80
2022/02/15 01:47:06;;;;;;;50.55;25.90;;;;;;;1.86;76.48;100177.41;1690880;84;25808;-80
2022/02/15 01:49:33;;;;;;;48.60;25.40;;;;;;;1.85;76.46;100181.52;1688297;83;27534;-80
2022/02/15 01:51:59;;;;;;;47.95;25.08;;;;;;;1.80;76.46;100175.82;1687945;84;25939;-79
2022/02/15 01:54:26;;;;;;;49.13;25.27;;;;;;;1.77;76.54;100174.80;1690264;84;25967;-80
2022/02/15 01:56:53;;;;;;;48.75;26.05;;;;;;;1.75;76.56;100173.63;1689049;84;25832;-80
2022/02/15 01:59:20;;;;;;;52.48;27.45;;;;;;;1.76;76.60;100171.80;1688182;83;25785;-79
2022/02/15 02:01:47;;;;;;;51.95;26.95;;;;;;;1.76;76.62;100170.48;1690895;83;27536;-79
2022/02/15 02:06:58;;;;;;;50.60;26.45;;;;;;;1.74;76.66;100171.11;1688950;84;26208;-79
2022/02/15 02:09:27;;;;;;;46.92;27.22;;;;;;;1.72;76.70;100169.09;1686853;83;25939;-80
2022/02/15 02:11:54;;;;;;;49.65;27.40;;;;;;;1.72;76.75;100167.78;1692006;84;25898;-80
2022/02/15 02:14:22;;;;;;;50.80;25.57;;;;;;;1.74;76.79;100169.31;1686056;84;27535;-79
2022/02/15 02:16:50;;;;;;;49.10;26.93;;;;;;;1.76;76.78;100170.48;1690145;84;25931;-79
2022/02/15 02:19:18;;;;;;;54.60;27.85;;;;;;;1.78;76.64;100165.89;1690677;84;25844;-79
2022/02/15 02:21:45;;;;;;;51.60;27.07;;;;;;;1.78;76.60;100168.05;1692346;83;26614;-80
2022/02/15 02:24:15;;;;;;;47.97;27.33;;;;;;;1.79;76.62;100164.93;1694262;83;25937;-79
2022/02/15 02:26:46;;;;;;;43.58;24.85;;;;;;;1.82;76.60;100164.66;1692254;83;27474;-79
2022/02/15 02:29:12;;;;;;;47.62;26.95;;;;;;;1.82;76.56;100168.63;1696281;83;25900;-80
2022/02/15 02:31:45;;;;;;;49.20;26.50;;;;;;;1.81;76.59;100164.30;1693983;83;25829;-80
2022/02/15 02:34:13;;;;;;;52.93;25.97;;;;;;;1.79;76.48;100163.13;1698970;83;26674;-79
2022/02/15 02:36:45;;;;;;;47.62;26.80;;;;;;;1.80;76.55;100161.30;1696592;83;26169;-79
2022/02/15 02:39:12;;;;;;;48.25;26.62;;;;;;;1.80;76.55;100161.30;1693325;83;27445;-80
2022/02/15 02:41:39;;;;;;;54.98;28.90;;;;;;;1.79;76.46;100157.01;1694641;83;25889;-79
2022/02/15 02:44:07;;;;;;;52.08;27.15;;;;;;;1.78;76.54;100159.28;1690822;83;26484;-79
2022/02/15 02:46:33;;;;;;;52.80;27.60;;;;;;;1.77;76.49;100155.84;1694707;83;26134;-80
2022/02/15 02:49:00;;;;;;;47.80;25.90;;;;;;;1.75;76.46;100151.67;1694219;83;25992;-79
2022/02/15 02:51:27;;;;;;;46.40;27.13;;;;;;;1.75;76.49;100157.79;1675621;83;27482;-79
2022/02/15 02:53:53;;;;;;;53.00;27.42;;;;;;;1.72;76.53;100156.73;1693669;83;26408;-79
2022/02/15 02:56:20;;;;;;;41.45;25.05;;;;;;;1.72;76.59;100158.06;1687730;83;25933;-79
2022/02/15 02:58:46;;;;;;;52.55;27.82;;;;;;;1.71;76.61;100166.94;1694028;83;25998;-79
2022/02/15 03:01:13;;;;;;;47.17;27.60;;;;;;;1.74;76.55;100163.19;1698256;83;25838;-81
2022/02/15 03:03:41;;;;;;;48.90;26.17;;;;;;;1.73;76.58;100160.22;1693379;83;28392;-80
2022/02/15 03:06:08;;;;;;;46.02;25.37;;;;;;;1.76;76.64;100164.72;1691296;83;25923;-80
2022/02/15 03:08:34;;;;;;;45.55;24.75;;;;;;;1.75;76.63;100158.27;1691662;83;25980;-79
2022/02/15 03:11:01;;;;;;;45.12;25.27;;;;;;;1.74;76.57;100149.51;1688470;83;25806;-80
2022/02/15 03:13:29;;;;;;;47.50;26.87;;;;;;;1.74;76.64;100163.19;1698719;83;26274;-79
2022/02/15 03:15:55;;;;;;;49.53;25.85;;;;;;;1.72;76.60;100164.66;1693907;83;27522;-81
2022/02/15 03:18:21;;;;;;;45.85;26.15;;;;;;;1.71;76.58;100165.62;1693653;83;26588;-80
2022/02/15 03:20:48;;;;;;;50.63;26.05;;;;;;;1.70;76.64;100166.61;1689442;83;25975;-80
2022/02/15 03:23:14;;;;;;;46.00;27.20;;;;;;;1.70;76.55;100162.65;1689964;83;25772;-80
2022/02/15 03:25:41;;;;;;;50.88;27.42;;;;;;;1.68;76.58;100164.59;1698458;83;25961;-80
2022/02/15 03:28:07;;;;;;;43.95;25.90;;;;;;;1.69;76.70;100162.80;1692289;83;27539;-80
2022/02/15 03:30:33;;;;;;;45.50;25.32;;;;;;;1.70;76.77;100163.13;1695078;83;26201;-79
2022/02/15 03:32:59;;;;;;;47.08;26.07;;;;;;;1.70;76.69;100165.77;1691897;83;26560;-80
2022/02/15 03:35:27;;;;;;;51.35;27.77;;;;;;;1.70;76.63;100167.09;1693315;83;25962;-79
2022/02/15 03:37:55;;;;;;;45.88;25.30;;;;;;;1.70;76.61;100168.41;1696167;83;26110;-79
2022/02/15 03:40:21;;;;;;;56.02;26.85;;;;;;;1.69;76.56;100165.44;1694928;82;27640;-79
2022/02/15 03:43:06;;;;;;;59.65;30.77;;;;;;;1.69;76.55;100158.84;1695713;83;26027;-80
2022/02/15 03:45:32;;;;;;;57.98;27.20;;;;;;;1.67;76.41;100163.43;1695765;83;25900;-79
2022/02/15 03:48:09;;;;;;;50.23;26.87;;;;;;;1.64;76.45;100157.94;1690258;83;26438;-79
2022/02/15 03:50:36;;;;;;;53.05;28.25;;;;;;;1.63;76.43;100157.58;1694436;83;26665;-79
2022/02/15 03:53:04;;;;;;;48.50;25.37;;;;;;;1.62;76.46;100150.64;1696824;83;27466;-80
2022/02/15 03:55:31;;;;;;;46.80;25.72;;;;;;;1.63;76.53;100154.09;1691654;83;25880;-79
2022/02/15 03:57:58;;;;;;;44.42;24.92;;;;;;;1.57;76.54;100147.59;1692199;83;25844;-80
2022/02/15 04:00:24;;;;;;;44.13;25.30;;;;;;;1.58;76.62;100152.38;1695328;83;26647;-80
2022/02/15 04:02:55;;;;;;;53.60;26.50;;;;;;;1.57;76.63;100151.55;1694470;83;26019;-81
2022/02/15 04:05:23;;;;;;;44.08;25.50;;;;;;;1.58;76.70;100151.06;1691634;83;27463;-80
2022/02/15 04:07:50;;;;;;;43.92;26.07;;;;;;;1.58;76.71;100152.72;1688614;83;26655;-79
2022/02/15 04:10:17;;;;;;;48.85;27.42;;;;;;;1.60;76.77;100153.08;1688369;83;25769;-80
2022/02/15 04:12:44;;;;;;;44.45;24.92;;;;;;;1.60;76.77;100154.39;1692492;83;25840;-80
2022/02/15 04:15:12;;;;;;;49.20;25.60;;;;;;;1.60;76.72;100151.27;1692332;83;25994;-80
2022/02/15 04:17:40;;;;;;;47.10;26.65;;;;;;;1.61;76.78;100156.88;1690898;83;27455;-79
2022/02/15 04:20:08;;;;;;;46.40;26.02;;;;;;;1.61;76.69;100149.45;1696552;83;26007;-79
2022/02/15 04:22:34;;;;;;;45.20;27.22;;;;;;;1.61;76.79;100152.92;1699194;83;25779;-80
2022/02/15 04:25:04;;;;;;;49.65;25.82;;;;;;;1.60;76.79;100159.20;1687427;83;25938;-80
2022/02/15 04:27:31;;;;;;;49.60;27.10;;;;;;;1.58;76.71;100161.14;1694803;84;25784;-79
2022/02/15 04:29:59;;;;;;;47.93;24.95;;;;;;;1.57;76.65;100164.74;1682818;83;27521;-79
2022/02/15 04:32:26;;;;;;;44.58;25.05;;;;;;;1.56;76.67;100165.73;1665339;84;26005;-79
2022/02/15 04:34:53;;;;;;;47.20;25.17;;;;;;;1.53;76.71;100162.87;1685247;83;25948;-81
2022/02/15 04:37:19;;;;;;;43.23;25.02;;;;;;;1.52;76.82;100160.36;1687795;83;26479;-79
2022/02/15 04:39:47;;;;;;;41.13;24.15;;;;;;;1.50;76.90;100156.55;1685132;83;25847;-79
2022/02/15 04:42:15;;;;;;;43.55;24.37;;;;;;;1.48;76.90;100166.41;1686721;84;27505;-80
2022/02/15 04:44:41;;;;;;;48.60;27.20;;;;;;;1.49;77.02;100164.14;1660459;84;26108;-79
2022/02/15 04:47:09;;;;;;;44.53;26.12;;;;;;;1.50;77.11;100161.83;1682459;83;25918;-79
2022/02/15 04:49:35;;;;;;;50.67;27.55;;;;;;;1.52;77.21;100166.48;1684311;83;26204;-79
2022/02/15 04:52:04;;;;;;;45.58;25.60;;;;;;;1.49;77.22;100166.78;1688581;84;25894;-81
2022/02/15 04:54:31;;;;;;;49.50;27.37;;;;;;;1.42;77.18;100165.66;1687532;84;28522;-79
2022/02/15 04:56:58;;;;;;;49.55;27.17;;;;;;;1.39;77.32;100171.20;1686879;83;26058;-80
2022/02/15 04:59:24;;;;;;;43.83;24.60;;;;;;;1.38;77.44;100170.87;1687536;84;25790;-80
2022/02/15 05:01:51;;;;;;;45.52;26.45;;;;;;;1.35;77.56;100172.45;1682514;84;25949;-80
2022/02/15 05:07:04;;;;;;;45.78;27.15;;;;;;;1.31;77.63;100180.30;1683722;83;28388;-80
2022/02/15 05:09:32;;;;;;;50.17;28.17;;;;;;;1.32;77.85;100181.98;1685947;84;25952;-79
2022/02/15 05:11:58;;;;;;;49.40;27.70;;;;;;;1.33;77.93;100180.16;1687648;84;25398;-80
2022/02/15 05:14:25;;;;;;;52.50;27.27;;;;;;;1.33;77.94;100174.39;1684928;84;26036;-81
2022/02/15 05:16:53;;;;;;;47.58;26.48;;;;;;;1.33;77.92;100174.88;1688754;84;26008;-80
2022/02/15 05:19:21;;;;;;;51.37;27.27;;;;;;;1.35;77.98;100181.69;1685446;84;27493;-79
2022/02/15 05:21:49;;;;;;;48.23;27.65;;;;;;;1.38;77.95;100176.63;1686169;83;26027;-79
2022/02/15 05:24:16;;;;;;;50.20;28.32;;;;;;;1.39;77.94;100169.88;1692329;83;25781;-80
2022/02/15 05:26:45;;;;;;;48.63;27.82;;;;;;;1.40;77.92;100172.04;1696517;83;25963;-80
2022/02/15 05:29:13;;;;;;;44.50;26.82;;;;;;;1.41;77.88;100167.94;1693448;82;26379;-79
2022/02/15 05:31:41;;;;;;;47.78;26.60;;;;;;;1.41;77.90;100163.97;1688925;83;27710;-79
2022/02/15 05:34:09;;;;;;;50.00;28.10;;;;;;;1.42;77.96;100166.97;1688403;84;25510;-80
2022/02/15 05:36:36;;;;;;;43.00;26.42;;;;;;;1.43;77.93;100171.77;1692496;82;25773;-80
2022/02/15 05:39:04;;;;;;;50.35;29.77;;;;;;;1.42;77.88;100174.89;1689875;84;26078;-80
2022/02/15 05:41:32;;;;;;;51.73;27.98;;;;;;;1.41;77.86;100175.84;1695153;83;25832;-80
2022/02/15 05:44:00;;;;;;;47.98;27.60;;;;;;;1.40;77.82;100177.31;1689222;83;27465;-80
2022/02/15 05:46:26;;;;;;;54.05;30.50;;;;;;;1.40;77.86;100176.84;1686363;84;26074;-80
2022/02/15 05:48:54;;;;;;;52.45;30.08;;;;;;;1.37;77.85;100179.74;1687300;84;26265;-80
2022/02/15 05:51:24;;;;;;;;;;;;;;;1.38;77.93;100179.27;1667105;84;25987;-79
2022/02/15 05:53:55;;;;;;;58.48;30.37;;;;;;;1.36;78.01;100175.45;1688839;83;25906;-80
2022/02/15 05:56:23;;;;;;;64.40;32.70;;;;;;;1.34;78.05;100180.03;1688143;83;27487;-81
2022/02/15 05:59:08;;;;;;;63.38;31.73;;;;;;;1.33;78.08;100178.36;1689723;83;26304;-80
2022/02/15 06:01:53;;;;;;;67.58;33.02;;;;;;;1.34;78.18;100169.96;1692311;83;25908;-80
2022/02/15 06:04:20;;;;;;;62.55;33.70;;;;;;;1.33;78.19;100162.52;1687597;83;26545;-79
2022/02/15 06:06:50;;;;;;;;;;;;;;;1.33;78.31;100163.84;1677363;83;25776;-80
2022/02/15 06:09:17;;;;;;;62.90;31.62;;;;;;;1.32;78.33;100163.52;1667896;84;27589;-82
2022/02/15 06:11:47;;;;;;;59.80;32.60;;;;;;;1.30;78.46;100166.78;1675344;84;25803;-82
2022/02/15 06:14:13;;;;;;;54.48;30.75;;;;;;;1.30;78.52;100165.94;1675439;84;25315;-79
2022/02/15 06:16:40;;;;;;;58.80;33.23;;;;;;;1.29;78.45;100164.25;1669698;84;26661;-79
2022/02/15 06:19:10;;;;;;;;;;;;;;;1.27;78.50;100168.36;1681674;84;25984;-78
2022/02/15 06:21:37;;;;;;;61.45;31.90;;;;;;;1.29;78.62;100165.57;1671499;84;27470;-80
2022/02/15 06:24:06;;;;;;;60.50;31.93;;;;;;;1.29;78.69;100172.17;1667378;83;25853;-79
2022/02/15 06:26:34;;;;;;;60.90;33.18;;;;;;;1.29;78.72;100169.05;1671208;84;25781;-79
2022/02/15 06:29:19;;;;;;;64.58;33.02;;;;;;;1.32;78.82;100167.47;1676285;84;25859;-79
2022/02/15 06:31:47;;;;;;;58.02;30.68;;;;;;;1.34;78.88;100158.92;1678419;84;25867;-80
2022/02/15 06:34:16;;;;;;;58.58;32.55;;;;;;;1.35;79.05;100156.63;1668676;84;28312;-79
2022/02/15 06:36:42;;;;;;;55.28;31.77;;;;;;;1.37;79.30;100157.79;1679213;84;25916;-79
2022/02/15 06:39:09;;;;;;;58.50;31.42;;;;;;;1.40;79.61;100154.89;1672062;84;26515;-79
2022/02/15 06:41:37;;;;;;;61.05;31.27;;;;;;;1.43;79.89;100162.03;1671514;84;26019;-80
2022/02/15 06:44:11;;;;;;;56.02;30.88;;;;;;;1.48;80.17;100152.37;1673562;84;25914;-79
2022/02/15 06:46:39;;;;;;;60.20;31.97;;;;;;;1.56;80.49;100157.81;1671862;84;27492;-79
2022/02/15 06:49:14;;;;;;;52.30;30.20;;;;;;;1.60;80.67;100153.91;1673965;83;25917;-79
2022/02/15 06:51:42;;;;;;;51.65;29.50;;;;;;;1.66;80.74;100161.75;1673786;84;25882;-80
2022/02/15 06:54:10;;;;;;;51.83;29.95;;;;;;;1.71;80.95;100175.37;1674626;84;26384;-79
2022/02/15 06:56:39;;;;;;;60.38;31.85;;;;;;;1.74;81.06;100183.83;1674353;84;26324;-79
2022/02/15 06:59:05;;;;;;;57.67;31.25;;;;;;;1.79;81.04;100190.02;1679944;83;27529;-80
2022/02/15 07:01:33;;;;;;;55.33;30.57;;;;;;;1.82;81.13;100196.34;1674980;84;25910;-79
2022/02/15 07:04:01;;;;;;;55.25;29.92;;;;;;;1.85;81.20;100196.05;1675308;84;26588;-79
2022/02/15 07:06:27;;;;;;;56.28;30.97;;;;;;;1.88;81.27;100195.27;1675469;84;25953;-80
2022/02/15 07:08:53;;;;;;;54.75;29.48;;;;;;;1.89;81.19;100190.34;1675354;84;25363;-80
2022/02/15 07:11:20;;;;;;;51.58;30.00;;;;;;;1.93;81.25;100192.20;1679481;84;27414;-80
2022/02/15 07:13:46;;;;;;;57.20;31.70;;;;;;;1.95;81.33;100191.58;1672578;84;26516;-79
2022/02/15 07:16:13;;;;;;;51.88;30.37;;;;;;;2.00;81.54;100198.12;1677062;84;25821;-79
2022/02/15 07:18:42;;;;;;;56.23;31.27;;;;;;;2.03;81.63;100199.13;1681124;84;25839;-80
2022/02/15 07:21:12;;;;;;;51.55;28.40;;;;;;;2.07;81.63;100198.38;1670219;84;26583;-79
2022/02/15 07:23:58;;;;;;;52.40;29.02;;;;;;;2.10;81.65;100194.12;1672346;84;27500;-79
2022/02/15 07:26:42;;;;;;;56.70;31.30;;;;;;;2.13;81.72;100191.20;1525755;86;9999998;-79
2022/02/15 07:29:17;;;;;;;58.45;33.13;;;;;;;2.19;81.89;100193.27;1634642;86;26570;-79
2022/02/15 07:31:45;;;;;;;56.42;31.60;;;;;;;2.21;81.95;100192.16;1639297;86;25776;-79
2022/02/15 07:34:11;;;;;;;52.90;29.18;;;;;;;2.24;81.88;100192.36;1644863;85;27456;-79
2022/02/15 07:36:40;;;;;;;52.38;28.80;;;;;;;2.27;81.85;100195.54;1613004;88;25838;-79
2022/02/15 07:39:06;;;;;;;55.52;29.55;;;;;;;2.29;81.73;100196.22;1611052;88;26052;-79
2022/02/15 07:41:32;;;;;;;57.50;30.88;;;;;;;2.31;81.78;100198.72;1635766;86;25921;-79
2022/02/15 07:43:59;;;;;;;57.48;30.40;;;;;;;2.31;81.64;100192.95;1637361;85;25909;-79
2022/02/15 07:46:27;;;;;;;55.63;32.03;;;;;;;2.38;81.76;100195.01;1631390;86;28312;-80
2022/02/15 07:48:53;;;;;;;48.58;28.23;;;;;;;2.41;81.78;100183.68;1629998;86;25907;-79
2022/02/15 07:51:19;;;;;;;53.65;29.35;;;;;;;2.45;81.86;100183.73;1613928;87;25857;-79
2022/02/15 07:53:46;;;;;;;49.75;31.65;;;;;;;2.50;81.96;100185.46;1634258;86;26508;-79
2022/02/15 07:56:12;;;;;;;50.55;31.12;;;;;;;2.55;82.16;100192.45;1610901;88;25367;-79
2022/02/15 07:58:39;;;;;;;53.30;29.75;;;;;;;2.61;82.20;100183.12;1617936;87;27477;-79
2022/02/15 08:01:05;;;;;;;49.33;30.15;;;;;;;2.68;82.24;100185.50;1634170;85;26105;-79
2022/02/15 08:03:32;;;;;;;55.60;32.55;;;;;;;2.76;82.31;100183.78;1639412;86;25473;-79
2022/02/15 08:05:59;;;;;;;51.05;29.95;;;;;;;2.87;82.47;100186.72;1634761;86;25853;-79
2022/02/15 08:08:26;;;;;;;55.88;31.02;;;;;;;2.97;82.29;100184.88;1638416;86;25827;-79
2022/02/15 08:10:56;;;;;;;55.17;30.57;;;;;;;3.08;82.27;100184.16;1622110;86;27540;-79
2022/02/15 08:13:21;;;;;;;53.50;30.37;;;;;;;3.18;82.11;100178.81;1630079;86;25817;-79
2022/02/15 08:15:50;;;;;;;50.80;29.48;;;;;;;3.25;81.85;100176.41;1635850;85;25957;-79
2022/02/15 08:18:18;;;;;;;49.08;27.98;;;;;;;3.31;81.63;100179.77;1636547;86;25767;-79
2022/02/15 08:20:45;;;;;;;52.38;29.92;;;;;;;3.37;81.37;100177.84;1638490;86;25965;-79
2022/02/15 08:23:11;;;;;;;49.98;28.73;;;;;;;3.43;81.23;100178.55;1604444;88;27538;-79
2022/02/15 08:25:39;;;;;;;49.25;29.55;;;;;;;3.49;81.13;100193.83;1631456;86;25619;-79
2022/02/15 08:28:06;;;;;;;53.68;30.80;;;;;;;3.53;81.07;100190.72;1635957;86;25908;-79
2022/02/15 08:30:32;;;;;;;50.10;29.37;;;;;;;3.57;80.82;100190.76;1634804;85;26008;-79
2022/02/15 08:32:59;;;;;;;53.38;29.63;;;;;;;3.63;80.84;100201.25;1633265;86;25782;-79
2022/02/15 08:35:25;;;;;;;55.20;30.15;;;;;;;3.66;80.64;100195.15;1636496;86;27471;-79
2022/02/15 08:37:52;;;;;;;57.30;31.05;;;;;;;3.69;80.57;100198.83;1635987;85;25940;-79
2022/02/15 08:40:21;;;;;;;52.13;31.17;;;;;;;3.73;80.47;100200.19;1630544;86;25862;-79
2022/02/15 08:42:47;;;;;;;55.60;29.50;;;;;;;3.75;80.41;100199.54;1633897;85;26580;-79
2022/02/15 08:45:14;;;;;;;49.95;29.60;;;;;;;3.78;80.30;100205.03;1634231;86;25877;-80
2022/02/15 08:47:40;;;;;;;53.23;29.32;;;;;;;3.78;80.32;100222.25;1634047;86;27545;-79
2022/02/15 08:50:08;;;;;;;52.53;29.80;;;;;;;3.78;80.44;100216.95;1637766;85;25872;-80
2022/02/15 08:52:37;;;;;;;51.60;28.92;;;;;;;3.79;80.43;100222.09;1633961;86;25804;-80
2022/02/15 08:55:06;;;;;;;51.75;28.42;;;;;;;3.81;80.32;100224.09;1633404;86;26463;-79
2022/02/15 08:57:34;;;;;;;46.37;27.42;;;;;;;3.83;80.23;100221.28;1636853;86;25875;-79
2022/02/15 09:00:00;;;;;;;59.08;31.30;;;;;;;3.84;80.06;100229.58;1609297;87;28274;-80
2022/02/15 09:02:26;;;;;;;55.88;31.80;;;;;;;3.84;80.05;100225.12;1634313;86;25918;-79
2022/02/15 09:04:53;;;;;;;50.95;29.25;;;;;;;3.86;80.08;100225.80;1631349;86;26523;-80
2022/02/15 09:07:19;;;;;;;48.23;29.57;;;;;;;3.89;80.06;100229.45;1607421;88;25770;-79
2022/02/15 09:09:46;;;;;;;53.13;29.40;;;;;;;3.92;80.09;100224.34;1609765;88;26463;-79
2022/02/15 09:12:12;;;;;;;49.45;29.77;;;;;;;3.94;80.12;100219.72;1637806;86;27542;-80
2022/02/15 09:14:38;;;;;;;49.25;28.77;;;;;;;3.98;80.06;100229.54;1633547;86;26515;-80
2022/02/15 09:17:05;;;;;;;49.95;30.57;;;;;;;3.99;79.97;100220.59;1636207;86;25859;-80
2022/02/15 09:19:32;;;;;;;54.50;31.35;;;;;;;3.98;79.79;100221.07;1623794;86;26000;-80
2022/02/15 09:21:59;;;;;;;51.45;29.27;;;;;;;4.00;79.84;100220.94;1637024;86;25767;-79
2022/02/15 09:24:27;;;;;;;57.73;30.20;;;;;;;4.02;79.68;100230.37;1634330;86;27096;-80
2022/02/15 09:26:54;;;;;;;49.77;28.50;;;;;;;4.01;79.67;100225.23;1637331;86;25976;-79
2022/02/15 09:29:20;;;;;;;50.43;29.82;;;;;;;4.01;79.54;100241.98;1633880;86;25804;-79
2022/02/15 09:31:46;;;;;;;52.03;30.65;;;;;;;4.00;79.54;100236.84;1635921;85;26584;-79
2022/02/15 09:34:12;;;;;;;50.15;29.35;;;;;;;4.01;79.64;100239.81;1633476;86;25920;-79
2022/02/15 09:36:39;;;;;;;56.30;31.77;;;;;;;4.03;79.60;100246.63;1638335;86;27548;-79
2022/02/15 09:39:08;;;;;;;52.62;30.57;;;;;;;4.05;79.61;100243.81;1638188;86;25678;-79
2022/02/15 09:41:36;;;;;;;56.88;31.37;;;;;;;4.09;79.60;100245.17;1633625;86;26642;-79
2022/02/15 09:44:05;;;;;;;59.10;32.15;;;;;;;4.11;79.58;100237.89;1633985;86;27117;-80
2022/02/15 09:46:34;;;;;;;57.58;31.95;;;;;;;4.13;79.56;100242.06;1637449;86;26585;-79
2022/02/15 09:49:01;;;;;;;59.18;31.05;;;;;;;4.16;79.52;100245.74;1637438;86;28320;-79
2022/02/15 09:51:29;;;;;;;56.55;32.70;;;;;;;4.17;79.49;100248.72;1637060;86;25933;-79
2022/02/15 09:53:56;;;;;;;55.10;31.27;;;;;;;4.17;79.50;100247.39;1636735;86;25825;-79
2022/02/15 09:56:23;;;;;;;57.73;32.63;;;;;;;4.20;79.80;100250.23;1637450;86;27417;-79
2022/02/15 09:58:50;;;;;;;57.10;33.08;;;;;;;4.24;79.86;100256.88;1635661;86;25870;-79
2022/02/15 10:01:17;;;;;;;60.35;32.78;;;;;;;4.29;80.01;100251.48;1634850;86;28270;-79
2022/02/15 10:03:59;;;;;;;63.48;34.38;;;;;;;4.33;80.24;100241.38;1629883;86;26516;-79
2022/02/15 10:06:29;;;;;;;56.42;32.90;;;;;;;4.38;80.32;100239.95;1636266;85;26644;-79
2022/02/15 10:08:59;;;;;;;56.02;31.95;;;;;;;4.45;80.27;100238.80;1638954;85;25959;-79
2022/02/15 10:11:38;;;;;;;56.80;32.45;;;;;;;4.49;80.26;100234.35;1637068;86;25869;-79
2022/02/15 10:14:06;;;;;;;56.80;31.90;;;;;;;4.55;80.19;100238.22;1593987;89;27472;-79
2022/02/15 10:16:46;;;;;;;55.60;32.55;;;;;;;4.58;80.02;100237.88;1635064;86;25942;-79
2022/02/15 10:19:25;;;;;;;54.73;33.60;;;;;;;4.63;80.00;100242.23;1637063;85;25976;-79
2022/02/15 10:21:56;;;;;;;64.53;34.58;;;;;;;4.73;80.18;100227.55;1634472;86;26050;-78
2022/02/15 10:24:24;;;;;;;;;;;;;;;4.82;80.35;100220.77;1629956;86;25816;-79
2022/02/15 10:27:04;;;;;;;57.10;33.28;;;;;;;4.90;80.23;100217.34;1670458;84;28286;-80
2022/02/15 10:29:34;;;;;;;60.25;32.70;;;;;;;4.95;80.15;100214.53;1669966;84;26355;-80
2022/02/15 10:32:09;;;;;;;55.48;32.48;;;;;;;5.03;79.88;100219.86;1669876;84;25821;-78
2022/02/15 10:34:50;;;;;;;60.60;34.45;;;;;;;5.09;79.67;100225.05;1679983;84;26007;-80
2022/02/15 10:37:17;;;;;;;64.93;35.43;;;;;;;5.15;79.56;100226.56;1675222;84;25833;-80
2022/02/15 10:39:55;;;;;;;58.45;32.60;;;;;;;5.21;79.49;100224.58;1672359;84;28448;-78
2022/02/15 10:42:25;;;;;;;58.35;32.08;;;;;;;5.24;79.25;100220.26;1671932;84;25821;-79
2022/02/15 10:45:08;;;;;;;64.67;34.43;;;;;;;5.30;79.10;100222.26;1676044;84;25517;-78
2022/02/15 10:47:39;;;;;;;54.90;32.42;;;;;;;5.38;79.26;100222.80;1676730;84;25791;-79
2022/02/15 10:50:10;;;;;;;58.95;32.70;;;;;;;5.49;79.28;100225.14;1669058;84;26002;-78
2022/02/15 10:52:37;;;;;;;58.68;32.73;;;;;;;5.60;79.26;100222.19;1674174;84;27484;-77
2022/02/15 10:55:05;;;;;;;57.78;32.03;;;;;;;5.72;78.90;100232.81;1672218;84;26440;-77
2022/02/15 10:57:32;;;;;;;52.08;32.33;;;;;;;5.85;78.61;100229.20;1674441;84;26649;-77
2022/02/15 11:00:04;;;;;;;54.55;32.98;;;;;;;5.94;78.46;100228.71;1672927;84;26758;-76
2022/02/15 11:02:31;;;;;;;54.30;30.50;;;;;;;6.01;78.37;100223.87;1671310;84;25870;-76
2022/02/15 11:05:02;;;;;;;61.75;34.38;;;;;;;6.05;77.90;100227.86;1674325;84;26979;-78
2022/02/15 11:07:33;;;;;;;;;;;;;;;6.10;78.11;100231.36;1677049;84;26447;-77
2022/02/15 11:10:28;;;;;;;54.45;31.82;;;;;;;6.13;77.42;100237.68;1671309;84;25877;-77
2022/02/15 11:12:57;;;;;;;56.15;31.80;;;;;;;6.03;76.94;100244.48;1670974;84;25855;-77
2022/02/15 11:15:31;;;;;;;53.13;33.10;;;;;;;6.03;77.15;100242.34;1670851;84;27038;-77
2022/02/15 11:18:04;;;;;;;55.20;32.15;;;;;;;6.00;76.92;100251.48;1672905;84;27490;-77
2022/02/15 11:20:56;;;;;;;59.35;34.65;;;;;;;5.99;77.07;100251.13;1672356;84;25756;-77
2022/02/15 11:23:28;;;;;;;57.58;34.05;;;;;;;6.02;77.05;100250.81;1673593;84;25950;-78
2022/02/15 11:26:11;;;;;;;55.17;33.02;;;;;;;6.04;76.68;100257.28;1674932;84;25939;-78
2022/02/15 11:28:53;;;;;;;57.05;32.50;;;;;;;6.04;76.79;100253.30;1670099;83;26421;-77
2022/02/15 11:31:28;;;;;;;57.30;33.30;;;;;;;6.04;76.74;100252.80;1673910;84;27566;-78